createdAt,value
2022-11-04T00:01:30.890Z,8.52
2022-11-04T00:03:58.045Z,7.45
2022-11-04T00:06:25.068Z,7.72
2022-11-04T00:08:54.077Z,7.20
2022-11-04T00:11:40.521Z,8.13
2022-11-04T00:14:09.321Z,7.10
2022-11-04T00:16:55.149Z,7.88
2022-11-04T00:19:21.981Z,6.60
2022-11-04T00:22:07.589Z,8.00
2022-11-04T00:24:43.587Z,7.28
2022-11-04T00:27:34.094Z,8.55
2022-11-04T00:30:01.439Z,9.45
2022-11-04T00:32:47.326Z,8.00
2022-11-04T00:35:14.284Z,8.07
2022-11-04T00:37:43.645Z,8.20
2022-11-04T00:40:14.240Z,8.93
2022-11-04T00:42:43.920Z,7.63
2022-11-04T00:45:11.078Z,8.50
2022-11-04T00:47:37.880Z,7.97
2022-11-04T00:50:05.267Z,6.97
2022-11-04T00:52:32.027Z,7.97
2022-11-04T00:54:58.850Z,7.65
2022-11-04T00:57:25.755Z,7.30
2022-11-04T00:59:52.539Z,8.30
2022-11-04T01:02:19.531Z,7.30
2022-11-04T01:04:47.548Z,7.30
2022-11-04T01:07:14.532Z,7.10
2022-11-04T01:09:41.412Z,7.28
2022-11-04T01:12:08.295Z,7.00
2022-11-04T01:14:35.181Z,7.65
2022-11-04T01:17:02.274Z,7.05
2022-11-04T01:19:29.126Z,9.40
2022-11-04T01:21:55.925Z,7.50
2022-11-04T01:24:22.711Z,7.07
2022-11-04T01:26:49.510Z,6.97
2022-11-04T01:29:16.331Z,7.80
2022-11-04T01:31:43.368Z,7.40
2022-11-04T01:34:10.416Z,8.98
2022-11-04T01:36:37.293Z,7.10
2022-11-04T01:39:04.392Z,7.65
2022-11-04T01:41:33.292Z,7.93
2022-11-04T01:44:37.599Z,8.55
2022-11-04T01:47:23.128Z,7.70
2022-11-04T01:49:55.540Z,7.38
2022-11-04T01:52:32.302Z,7.50
2022-11-04T01:55:05.412Z,7.88
2022-11-04T01:57:36.749Z,7.82
2022-11-04T02:00:06.836Z,7.93
2022-11-04T02:02:35.889Z,6.88
2022-11-04T02:05:02.778Z,7.25
2022-11-04T02:07:31.143Z,7.30
2022-11-04T02:09:58.600Z,7.25
2022-11-04T02:12:43.945Z,7.15
2022-11-04T02:15:11.172Z,7.45
2022-11-04T02:17:56.950Z,6.60
2022-11-04T02:20:26.861Z,8.15
2022-11-04T02:22:59.761Z,7.90
2022-11-04T02:25:42.103Z,6.72
2022-11-04T02:28:18.158Z,8.00
2022-11-04T02:31:14.733Z,7.30
2022-11-04T02:33:53.781Z,6.80
2022-11-04T02:36:33.063Z,8.80
2022-11-04T02:39:16.846Z,6.55
2022-11-04T02:41:46.426Z,7.35
2022-11-04T02:44:44.459Z,7.13
2022-11-04T02:47:17.411Z,7.00
2022-11-04T02:49:53.390Z,6.90
2022-11-04T02:52:27.911Z,6.70
2022-11-04T02:55:20.108Z,6.55
2022-11-04T02:57:49.619Z,6.72
2022-11-04T03:00:20.419Z,6.97
2022-11-04T03:02:56.502Z,6.55
2022-11-04T03:05:28.438Z,7.40
2022-11-04T03:07:59.764Z,7.07
2022-11-04T03:10:35.678Z,6.13
2022-11-04T03:13:13.288Z,6.30
2022-11-04T03:15:51.889Z,5.70
2022-11-04T03:18:34.076Z,6.85
2022-11-04T03:21:04.827Z,4.90
2022-11-04T03:23:32.207Z,6.55
2022-11-04T03:26:11.047Z,6.28
2022-11-04T03:28:53.937Z,5.78
2022-11-04T03:31:28.986Z,6.75
2022-11-04T03:33:56.454Z,7.78
2022-11-04T03:36:24.165Z,7.28
2022-11-04T03:38:52.685Z,6.68
2022-11-04T03:41:35.172Z,6.97
2022-11-04T03:44:02.254Z,6.95
2022-11-04T03:46:29.320Z,6.60
2022-11-04T03:48:58.113Z,6.15
2022-11-04T03:51:24.895Z,5.80
2022-11-04T03:53:51.772Z,6.00
2022-11-04T03:56:42.806Z,6.90
2022-11-04T03:59:38.292Z,5.78
2022-11-04T04:02:10.898Z,5.97
2022-11-04T04:04:40.461Z,6.25
2022-11-04T04:07:15.129Z,6.05
2022-11-04T04:09:53.341Z,6.20
2022-11-04T04:12:35.455Z,6.15
2022-11-04T04:15:22.517Z,5.80
2022-11-04T04:18:13.095Z,6.80
2022-11-04T04:20:40.926Z,5.72
2022-11-04T04:23:37.132Z,6.10
2022-11-04T04:26:25.586Z,6.40
2022-11-04T04:28:55.549Z,6.00
2022-11-04T04:31:43.981Z,6.57
2022-11-04T04:34:11.059Z,5.15
2022-11-04T04:36:47.416Z,5.88
2022-11-04T04:39:37.666Z,7.35
2022-11-04T04:42:23.720Z,6.43
2022-11-04T04:44:59.663Z,7.00
2022-11-04T04:47:28.894Z,6.25
2022-11-04T04:49:57.957Z,6.45
2022-11-04T04:52:34.419Z,6.75
2022-11-04T04:55:01.278Z,6.47
2022-11-04T04:57:28.119Z,5.60
2022-11-04T04:59:54.939Z,5.50
2022-11-04T05:02:21.921Z,5.78
2022-11-04T05:04:48.897Z,6.20
2022-11-04T05:07:15.719Z,7.18
2022-11-04T05:09:42.645Z,8.50
2022-11-04T05:12:10.152Z,7.05
2022-11-04T05:14:37.140Z,6.53
2022-11-04T05:17:04.478Z,6.82
2022-11-04T05:19:31.337Z,6.88
2022-11-04T05:21:58.720Z,6.97
2022-11-04T05:24:25.531Z,8.10
2022-11-04T05:26:52.739Z,7.05
2022-11-04T05:29:19.896Z,6.85
2022-11-04T05:31:46.746Z,6.30
2022-11-04T05:34:14.144Z,6.00
2022-11-04T05:36:41.392Z,5.55
2022-11-04T05:39:11.106Z,6.00
2022-11-04T05:41:37.896Z,7.57
2022-11-04T05:44:04.981Z,5.68
2022-11-04T05:46:31.865Z,6.00
2022-11-04T05:48:58.725Z,5.65
2022-11-04T05:51:27.984Z,5.90
2022-11-04T05:53:55.217Z,6.00
2022-11-04T05:56:22.089Z,5.50
2022-11-04T05:58:49.016Z,5.55
2022-11-04T06:01:36.867Z,5.03
2022-11-04T06:04:05.684Z,5.93
2022-11-04T06:06:35.557Z,5.35
2022-11-04T06:09:03.556Z,5.82
2022-11-04T06:11:31.941Z,5.28
2022-11-04T06:13:59.181Z,4.40
2022-11-04T06:16:26.729Z,5.13
2022-11-04T06:18:53.896Z,5.07
2022-11-04T06:21:25.592Z,4.90
2022-11-04T06:23:54.009Z,5.05
2022-11-04T06:26:25.372Z,5.28
2022-11-04T06:28:55.237Z,5.60
2022-11-04T06:31:22.289Z,4.72
2022-11-04T06:33:49.771Z,5.22
2022-11-04T06:36:17.296Z,4.55
2022-11-04T06:38:44.521Z,5.60
2022-11-04T06:41:14.589Z,5.15
2022-11-04T06:43:41.697Z,5.53
2022-11-04T06:46:30.768Z,6.10
2022-11-04T06:48:57.658Z,5.38
2022-11-04T06:51:25.379Z,5.20
2022-11-04T06:53:52.346Z,5.10
2022-11-04T06:56:19.378Z,5.70
2022-11-04T06:58:50.624Z,5.38
2022-11-04T07:01:22.017Z,5.20
2022-11-04T07:03:50.851Z,5.30
2022-11-04T07:06:18.252Z,5.30
2022-11-04T07:08:45.632Z,5.50
2022-11-04T07:11:13.055Z,5.65
2022-11-04T07:13:41.409Z,5.90
2022-11-04T07:16:09.388Z,5.78
2022-11-04T07:18:36.652Z,5.00
2022-11-04T07:21:08.736Z,5.83
2022-11-04T07:23:37.064Z,5.85
2022-11-04T07:26:07.177Z,6.82
2022-11-04T07:28:35.273Z,5.20
2022-11-04T07:31:03.499Z,6.18
2022-11-04T07:33:30.317Z,5.20
2022-11-04T07:35:58.399Z,5.38
2022-11-04T07:38:25.403Z,6.22
2022-11-04T07:40:52.322Z,5.10
2022-11-04T07:43:19.125Z,5.13
2022-11-04T07:45:45.962Z,5.80
2022-11-04T07:48:12.875Z,5.38
2022-11-04T07:50:40.729Z,5.20
2022-11-04T07:53:08.505Z,6.47
2022-11-04T07:55:43.032Z,5.87
2022-11-04T07:58:10.985Z,5.68
2022-11-04T08:00:37.857Z,6.20
2022-11-04T08:03:04.722Z,5.33
2022-11-04T08:05:31.558Z,6.20
2022-11-04T08:07:58.386Z,6.53
2022-11-04T08:10:25.414Z,6.60
2022-11-04T08:12:52.824Z,6.40
2022-11-04T08:15:19.895Z,6.38
2022-11-04T08:17:46.712Z,6.10
2022-11-04T08:20:13.557Z,5.60
2022-11-04T08:22:40.429Z,6.28
2022-11-04T08:25:07.558Z,5.63
2022-11-04T08:27:35.148Z,5.97
2022-11-04T08:30:04.189Z,5.50
2022-11-04T08:32:31.284Z,6.25
2022-11-04T08:34:58.099Z,7.20
2022-11-04T08:37:25.004Z,6.18
2022-11-04T08:39:51.829Z,6.75
2022-11-04T08:42:18.629Z,6.63
2022-11-04T08:44:45.396Z,7.53
2022-11-04T08:47:12.206Z,6.05
2022-11-04T08:49:39.808Z,6.68
2022-11-04T08:52:06.688Z,6.80
2022-11-04T08:54:34.123Z,6.90
2022-11-04T08:57:01.198Z,8.00
2022-11-04T08:59:27.972Z,5.87
2022-11-04T09:01:54.991Z,7.23
2022-11-04T09:04:21.933Z,6.80
2022-11-04T09:06:51.050Z,6.68
2022-11-04T09:09:20.023Z,6.90
2022-11-04T09:11:47.344Z,5.60
2022-11-04T09:14:14.981Z,5.90
2022-11-04T09:16:42.413Z,5.83
2022-11-04T09:19:09.750Z,5.93
2022-11-04T09:21:36.577Z,7.27
2022-11-04T09:24:03.911Z,6.90
2022-11-04T09:26:31.364Z,7.80
2022-11-04T09:28:59.323Z,6.30
2022-11-04T09:31:28.731Z,6.57
2022-11-04T09:33:56.176Z,5.77
2022-11-04T09:36:23.565Z,5.22
2022-11-04T09:38:50.473Z,6.47
2022-11-04T09:41:55.121Z,6.25
2022-11-04T09:45:06.909Z,5.97
2022-11-04T09:47:32.075Z,6.33
2022-11-04T09:50:00.317Z,6.73
2022-11-04T09:52:31.284Z,6.43
2022-11-04T09:55:07.765Z,6.40
2022-11-04T09:57:34.599Z,6.80
2022-11-04T10:00:01.650Z,6.30
2022-11-04T10:02:54.557Z,5.80
2022-11-04T10:05:39.870Z,5.70
2022-11-04T10:08:38.696Z,5.37
2022-11-04T10:11:41.344Z,6.27
2022-11-04T10:14:35.158Z,5.80
2022-11-04T10:17:23.579Z,5.90
2022-11-04T10:20:28.084Z,5.70
2022-11-04T10:23:15.867Z,5.97
2022-11-04T10:25:57.299Z,6.20
2022-11-04T10:28:33.796Z,7.13
2022-11-04T10:31:01.310Z,6.43
2022-11-04T10:33:28.027Z,6.10
2022-11-04T10:36:00.436Z,5.57
2022-11-04T10:38:39.323Z,6.33
2022-11-04T10:41:24.581Z,5.70
2022-11-04T10:44:01.579Z,6.57
2022-11-04T10:46:40.418Z,6.33
2022-11-04T10:49:15.424Z,5.57
2022-11-04T10:51:42.345Z,5.97
2022-11-04T10:54:10.740Z,5.80
2022-11-04T10:56:55.392Z,5.50
2022-11-04T10:59:46.791Z,5.57
2022-11-04T11:02:13.904Z,4.83
2022-11-04T11:04:41.433Z,5.77
2022-11-04T11:07:10.325Z,5.40
2022-11-04T11:09:53.364Z,6.30
2022-11-04T11:12:50.041Z,5.77
2022-11-04T11:15:32.888Z,6.40
2022-11-04T11:18:23.212Z,6.10
2022-11-04T11:21:04.073Z,5.70
2022-11-04T11:23:48.551Z,5.67
2022-11-04T11:26:21.341Z,5.80
2022-11-04T11:28:57.447Z,5.10
2022-11-04T11:31:26.860Z,5.90
2022-11-04T11:33:55.834Z,6.13
2022-11-04T11:36:30.067Z,5.40
2022-11-04T11:39:03.456Z,5.80
2022-11-04T11:41:31.850Z,5.30
2022-11-04T11:44:33.079Z,6.67
2022-11-04T11:47:15.527Z,6.30
2022-11-04T11:49:42.698Z,6.40
2022-11-04T11:52:28.002Z,6.40
2022-11-04T11:55:01.918Z,6.50
2022-11-04T11:57:44.889Z,6.70
2022-11-04T12:09:59.581Z,6.20
2022-11-04T12:13:05.295Z,6.40
2022-11-04T12:15:56.691Z,5.67
2022-11-04T12:18:49.500Z,5.63
2022-11-04T12:21:27.163Z,6.00
2022-11-04T12:24:27.717Z,5.23
2022-11-04T12:27:13.759Z,6.07
2022-11-04T12:30:06.936Z,6.20
2022-11-04T12:32:41.458Z,6.27
2022-11-04T12:35:34.337Z,5.20
2022-11-04T12:38:01.041Z,5.97
2022-11-04T12:41:18.831Z,5.57
2022-11-04T12:44:01.648Z,5.50
2022-11-04T12:46:55.361Z,5.60
2022-11-04T12:49:40.763Z,5.30
2022-11-04T12:52:20.407Z,5.70
2022-11-04T12:55:05.327Z,5.40
2022-11-04T12:57:47.994Z,5.80
2022-11-04T13:00:20.914Z,5.40
2022-11-04T13:03:05.519Z,5.60
2022-11-04T13:05:50.373Z,5.40
2022-11-04T13:08:31.225Z,5.53
2022-11-04T13:11:06.111Z,6.37
2022-11-04T13:13:38.408Z,5.03
2022-11-04T13:16:11.172Z,5.93
2022-11-04T13:18:41.153Z,5.00
2022-11-04T13:21:14.158Z,5.63
2022-11-04T13:23:52.487Z,4.77
2022-11-04T13:26:21.411Z,6.00
2022-11-04T13:29:09.116Z,4.80
2022-11-04T13:32:05.636Z,4.90
2022-11-04T13:34:51.037Z,5.27
2022-11-04T13:37:25.552Z,5.70
2022-11-04T13:40:24.378Z,5.97
2022-11-04T13:42:51.083Z,5.80
2022-11-04T13:45:20.042Z,5.63
2022-11-04T13:47:51.172Z,5.60
2022-11-04T13:50:37.175Z,6.03
2022-11-04T13:53:06.516Z,5.23
2022-11-04T13:55:35.523Z,5.83
2022-11-04T13:58:05.082Z,5.50
2022-11-04T14:00:33.426Z,5.67
2022-11-04T14:03:21.527Z,5.13
2022-11-04T14:06:00.420Z,5.77
2022-11-04T14:08:27.435Z,5.57
2022-11-04T14:10:54.169Z,5.00
2022-11-04T14:13:30.404Z,4.77
2022-11-04T14:16:03.754Z,6.30
2022-11-04T14:18:45.422Z,4.50
2022-11-04T14:21:18.499Z,5.87
2022-11-04T14:23:57.444Z,5.80
2022-11-04T14:26:40.870Z,4.97
2022-11-04T14:29:28.139Z,5.20
2022-11-04T14:32:00.571Z,6.20
2022-11-04T14:34:37.669Z,5.77
2022-11-04T14:37:26.490Z,6.93
2022-11-04T14:40:02.258Z,5.90
2022-11-04T14:42:48.208Z,5.23
2022-11-04T14:45:38.833Z,8.13
2022-11-04T14:48:18.304Z,7.63
2022-11-04T14:50:47.853Z,5.47
2022-11-04T14:53:42.156Z,6.33
2022-11-04T14:56:23.982Z,7.30
2022-11-04T14:59:00.464Z,6.70
2022-11-04T15:01:34.553Z,6.40
2022-11-04T15:04:15.020Z,6.23
2022-11-04T15:06:54.866Z,7.43
2022-11-04T15:09:31.947Z,6.80
2022-11-04T15:12:30.486Z,6.83
2022-11-04T15:14:58.786Z,6.80
2022-11-04T15:17:29.322Z,7.20
2022-11-04T15:19:59.593Z,7.20
2022-11-04T15:22:28.148Z,7.73
2022-11-04T15:24:56.736Z,6.97
2022-11-04T15:27:29.815Z,7.10
2022-11-04T15:30:02.912Z,8.10
2022-11-04T15:32:30.148Z,7.33
2022-11-04T15:34:57.554Z,6.07
2022-11-04T15:37:25.907Z,8.20
2022-11-04T15:39:56.313Z,7.10
2022-11-04T15:42:40.423Z,6.97
2022-11-04T15:45:23.003Z,7.63
2022-11-04T15:48:10.069Z,7.33
2022-11-04T15:50:37.880Z,7.40
2022-11-04T15:53:10.032Z,7.40
2022-11-04T15:55:38.465Z,7.67
2022-11-04T15:58:05.405Z,6.67
2022-11-04T16:00:34.156Z,7.00
2022-11-04T16:03:01.715Z,7.70
2022-11-04T16:05:33.616Z,7.80
2022-11-04T16:08:20.974Z,7.80
2022-11-04T16:10:49.209Z,9.03
2022-11-04T16:13:16.111Z,8.50
2022-11-04T16:15:48.771Z,8.57
2022-11-04T16:18:49.744Z,8.80
2022-11-04T16:21:35.196Z,9.30
2022-11-04T16:24:27.255Z,8.20
2022-11-04T16:26:57.752Z,8.57
2022-11-04T16:29:33.616Z,8.17
2022-11-04T16:32:06.521Z,9.50
2022-11-04T16:34:33.421Z,7.70
2022-11-04T16:37:00.649Z,8.80
2022-11-04T16:39:27.465Z,8.17
2022-11-04T16:41:54.269Z,8.20
2022-11-04T16:44:23.087Z,7.40
2022-11-04T16:46:49.937Z,7.63
2022-11-04T16:49:19.438Z,7.43
2022-11-04T16:51:49.393Z,7.70
2022-11-04T16:54:16.190Z,8.90
2022-11-04T16:56:43.005Z,8.63
2022-11-04T16:59:11.806Z,8.30
2022-11-04T17:01:42.088Z,8.50
2022-11-04T17:04:09.478Z,8.20
2022-11-04T17:06:36.700Z,8.50
2022-11-04T17:09:04.729Z,8.60
2022-11-04T17:11:31.665Z,9.30
2022-11-04T17:13:58.614Z,9.07
2022-11-04T17:16:26.645Z,8.07
2022-11-04T17:18:53.466Z,8.63
2022-11-04T17:21:21.149Z,9.00
2022-11-04T17:23:48.027Z,10.07
2022-11-04T17:26:14.878Z,8.83
2022-11-04T17:28:42.115Z,10.13
2022-11-04T17:31:16.361Z,8.80
2022-11-04T17:33:43.224Z,8.60
2022-11-04T17:36:16.989Z,8.53
2022-11-04T17:38:43.977Z,8.80
2022-11-04T17:41:29.325Z,9.10
2022-11-04T17:44:01.869Z,8.97
2022-11-04T17:46:35.535Z,9.30
2022-11-04T17:49:17.468Z,9.53
2022-11-04T17:51:47.093Z,9.07
2022-11-04T17:54:14.412Z,9.23
2022-11-04T17:56:42.028Z,9.60
2022-11-04T17:59:10.700Z,9.40
2022-11-04T18:01:37.742Z,10.57
2022-11-04T18:04:05.057Z,9.13
2022-11-04T18:06:34.805Z,10.80
2022-11-04T18:09:03.268Z,10.00
2022-11-04T18:11:49.188Z,9.33
2022-11-04T18:14:18.449Z,9.90
2022-11-04T18:16:48.824Z,10.87
2022-11-04T18:19:17.910Z,9.83
2022-11-04T18:21:45.012Z,8.87
2022-11-04T18:24:12.359Z,10.77
2022-11-04T18:26:40.506Z,10.07
2022-11-04T18:29:07.705Z,9.83
2022-11-04T18:31:37.427Z,10.50
2022-11-04T18:34:10.056Z,9.67
2022-11-04T18:36:40.252Z,9.23
2022-11-04T18:39:08.848Z,10.37
2022-11-04T18:41:36.808Z,10.40
2022-11-04T18:44:04.799Z,10.07
2022-11-04T18:46:31.676Z,11.40
2022-11-04T18:48:59.399Z,10.10
2022-11-04T18:51:26.610Z,9.00
2022-11-04T18:53:53.456Z,10.17
2022-11-04T18:56:22.009Z,9.87
2022-11-04T18:58:49.012Z,11.47
2022-11-04T19:01:23.636Z,10.10
2022-11-04T19:03:51.269Z,9.20
2022-11-04T19:06:27.753Z,10.13
2022-11-04T19:09:05.099Z,9.83
2022-11-04T19:11:43.304Z,11.20
2022-11-04T19:14:14.372Z,10.77
2022-11-04T19:16:43.174Z,9.87
2022-11-04T19:19:16.427Z,10.20
2022-11-04T19:21:43.339Z,9.33
2022-11-04T19:24:11.860Z,9.30
2022-11-04T19:26:40.952Z,9.53
2022-11-04T19:29:07.813Z,8.90
2022-11-04T19:31:34.896Z,9.10
2022-11-04T19:34:07.347Z,8.43
2022-11-04T19:36:35.501Z,9.00
2022-11-04T19:39:02.285Z,8.77
2022-11-04T19:41:47.832Z,8.73
2022-11-04T19:44:18.107Z,9.67
2022-11-04T19:46:46.046Z,8.60
2022-11-04T19:49:12.931Z,9.30
2022-11-04T19:51:39.971Z,9.17
2022-11-04T19:54:07.212Z,10.07
2022-11-04T19:56:36.389Z,8.90
2022-11-04T19:59:06.458Z,9.60
2022-11-04T20:01:35.159Z,9.70
2022-11-04T20:04:03.352Z,9.10
2022-11-04T20:06:32.496Z,9.17
2022-11-04T20:09:04.540Z,8.73
2022-11-04T20:11:33.047Z,8.95
2022-11-04T20:14:06.548Z,8.97
2022-11-04T20:16:39.536Z,8.73
2022-11-04T20:19:06.725Z,7.77
2022-11-04T20:21:36.652Z,9.10
2022-11-04T20:24:06.220Z,10.40
2022-11-04T20:26:34.440Z,8.80
2022-11-04T20:29:02.554Z,7.33
2022-11-04T20:31:32.401Z,8.40
2022-11-04T20:34:02.496Z,9.53
2022-11-04T20:36:29.666Z,8.87
2022-11-04T20:39:05.639Z,9.43
2022-11-04T20:41:33.059Z,9.57
2022-11-04T20:44:00.185Z,8.77
2022-11-04T20:46:31.616Z,8.60
2022-11-04T20:48:59.101Z,8.60
2022-11-04T20:51:28.810Z,8.20
2022-11-04T20:54:00.508Z,8.60
2022-11-04T20:56:38.489Z,8.13
2022-11-04T20:59:06.291Z,8.13
2022-11-04T21:01:38.712Z,7.67
2022-11-04T21:04:11.568Z,8.13
2022-11-04T21:06:39.632Z,7.80
2022-11-04T21:09:09.101Z,8.00
2022-11-04T21:11:35.940Z,7.97
2022-11-04T21:14:03.471Z,7.77
2022-11-04T21:16:30.632Z,8.67
2022-11-04T21:18:57.961Z,7.87
2022-11-04T21:21:27.803Z,8.07
2022-11-04T21:24:07.767Z,8.37
2022-11-04T21:26:35.711Z,8.57
2022-11-04T21:29:08.692Z,7.73
2022-11-04T21:31:37.014Z,9.23
2022-11-04T21:34:05.256Z,7.20
2022-11-04T21:36:32.971Z,8.60
2022-11-04T21:39:00.090Z,8.30
2022-11-04T21:41:29.854Z,7.80
2022-11-04T21:44:01.998Z,9.27
2022-11-04T21:46:31.706Z,8.33
2022-11-04T21:48:58.844Z,7.70
2022-11-04T21:51:31.064Z,7.20
2022-11-04T21:53:59.300Z,8.00
2022-11-04T21:56:28.879Z,8.00
2022-11-04T21:58:56.590Z,8.10
2022-11-04T22:01:26.741Z,8.60
2022-11-04T22:03:55.835Z,7.90
2022-11-04T22:06:22.791Z,7.93
2022-11-04T22:08:54.296Z,7.60
2022-11-04T22:11:25.130Z,7.70
2022-11-04T22:14:00.489Z,7.40
2022-11-04T22:16:29.690Z,7.47
2022-11-04T22:18:59.145Z,8.37
2022-11-04T22:21:28.280Z,8.67
2022-11-04T22:23:55.663Z,8.53
2022-11-04T22:26:25.331Z,8.70
2022-11-04T22:28:52.896Z,8.40
2022-11-04T22:31:22.898Z,8.90
2022-11-04T22:33:51.122Z,8.17
2022-11-04T22:36:18.470Z,9.10
2022-11-04T22:38:45.607Z,9.07
2022-11-04T22:41:16.013Z,8.10
2022-11-04T22:43:42.849Z,8.20
2022-11-04T22:46:13.613Z,9.07
2022-11-04T22:48:40.444Z,8.97
2022-11-04T22:51:09.233Z,8.20
2022-11-04T22:53:38.695Z,7.77
2022-11-04T22:56:07.099Z,8.90
2022-11-04T22:58:34.439Z,9.00
2022-11-04T23:01:08.027Z,8.60
2022-11-04T23:03:35.031Z,9.27
2022-11-04T23:06:04.362Z,9.43
2022-11-04T23:08:33.133Z,10.43
2022-11-04T23:11:25.124Z,9.93
2022-11-04T23:14:18.764Z,9.90
2022-11-04T23:17:09.255Z,8.93
2022-11-04T23:19:37.321Z,9.73
2022-11-04T23:22:23.439Z,8.87
2022-11-04T23:25:08.725Z,9.13
2022-11-04T23:27:58.732Z,9.10
2022-11-04T23:30:28.494Z,8.90
2022-11-04T23:33:00.584Z,9.53
2022-11-04T23:35:48.350Z,9.43
2022-11-04T23:38:15.893Z,9.43
2022-11-04T23:41:03.658Z,10.07
2022-11-04T23:43:31.456Z,9.33
2022-11-04T23:46:16.927Z,8.83
2022-11-04T23:49:02.619Z,9.80
2022-11-04T23:51:48.281Z,9.40
2022-11-04T23:54:34.176Z,7.90
2022-11-04T23:57:19.743Z,9.30
